Time;durP1;ratioP1;P1;durP2;ratioP2;P2;SDS_P1;SDS_P2;PMS_P1;PMS_P2;Temp;Humidity;BMP_temperature;BMP_pressure;BME280_temperature;BME280_humidity;BME280_pressure;Samples;Min_cycle;Max_cycle;Signal;HPM_P1;HPM_P2
2023/03/03 12:36:56;;;;;;;;;;;;;;;;;;5812539;23;20496;-89
2023/03/03 12:39:53;;;;;;;;;;;;;;;;;;4895424;29;19934;-93
2023/03/03 12:42:40;;;;;;;;;;;;;;;;;;4911969;23;19930;-94
2023/03/03 12:45:24;;;;;;;;;;;;;;;;;;4950063;23;19934;-96
2023/03/03 18:23:25;;;;;;;;;;;;;;;;;;4862658;29;19993;-88
2023/03/03 18:25:54;;;;;;;;;;;;;;;;;;4868925;29;20376;-87
2023/03/03 18:28:21;;;;;;;;;;;;;;;;;;4845858;29;19927;-88
2023/03/03 18:30:49;;;;;;;;;;;;;;;;;;4846884;29;19966;-88
2023/03/03 18:33:15;;;;;;;;;;;;;;;;;;4860649;29;19921;-88
2023/03/03 18:35:42;;;;;;;;;;;;;;;;;;4846328;29;20464;-88
2023/03/03 18:38:14;;;;;;;;;;;;;;;;;;4845318;29;19920;-88
2023/03/03 18:40:48;;;;;;;;;;;;;;;;;;4860108;29;19924;-88
2023/03/03 18:43:32;;;;;;;;;;;;;;;;;;4857255;29;20030;-88
2023/03/03 18:45:58;;;;;;;;;;;;;;;;;;4846481;29;19921;-90
2023/03/03 18:48:43;;;;;;;;;;;;;;;;;;4846419;29;19920;-89
2023/03/03 18:51:08;;;;;;;;;;;;;;;;;;4859959;29;20027;-86
2023/03/03 18:53:34;;;;;;;;;;;;;;;;;;4860062;29;20392;-86
2023/03/03 18:56:01;;;;;;;;;;;;;;;;;;4844626;29;19920;-85
2023/03/03 18:58:28;;;;;;;;;;;;;;;;;;4845551;29;19931;-86
2023/03/03 19:00:53;;;;;;;;;;;;;;;;;;4845563;29;19920;-87
2023/03/03 19:03:27;;;;;;;;;;;;;;;;;;4859901;29;19920;-86
2023/03/03 19:05:56;;;;;;;;;;;;;;;;;;4860011;29;19921;-85
2023/03/03 19:08:29;;;;;;;;;;;;;;;;;;4859668;29;20283;-86
2023/03/03 19:10:55;;;;;;;;;;;;;;;;;;4845519;29;20025;-86
2023/03/03 19:13:33;;;;;;;;;;;;;;;;;;4845457;29;20395;-87
2023/03/03 19:16:01;;;;;;;;;;;;;;;;;;4845218;29;19977;-86
2023/03/03 19:18:28;;;;;;;;;;;;;;;;;;4859671;29;19921;-86
2023/03/03 19:20:55;;;;;;;;;;;;;;;;;;4844082;29;20359;-86
2023/03/03 19:23:23;;;;;;;;;;;;;;;;;;4844009;29;19924;-87
2023/03/03 19:26:07;;;;;;;;;;;;;;;;;;4859210;29;20384;-86
2023/03/03 19:28:40;;;;;;;;;;;;;;;;;;4859541;29;19927;-86
2023/03/03 19:31:24;;;;;;;;;;;;;;;;;;4843744;29;20014;-86
2023/03/03 19:33:52;;;;;;;;;;;;;;;;;;4843984;29;19984;-84
2023/03/03 19:36:17;;;;;;;;;;;;;;;;;;4845009;29;19999;-86
2023/03/03 19:38:56;;;;;;;;;;;;;;;;;;4859175;29;20344;-85
2023/03/03 19:41:33;;;;;;;;;;;;;;;;;;4844513;29;20032;-85
2023/03/03 19:44:06;;;;;;;;;;;;;;;;;;4845014;29;19921;-88
2023/03/03 19:46:43;;;;;;;;;;;;;;;;;;4843690;29;20023;-84
2023/03/03 19:49:15;;;;;;;;;;;;;;;;;;4844854;29;20382;-84
2023/03/03 19:51:55;;;;;;;;;;;;;;;;;;4844792;29;19925;-84
2023/03/03 19:54:32;;;;;;;;;;;;;;;;;;4844631;29;19927;-84
2023/03/03 19:56:59;;;;;;;;;;;;;;;;;;4844742;29;19927;-85
2023/03/03 19:59:39;;;;;;;;;;;;;;;;;;4844551;29;19921;-84
2023/03/03 20:02:04;;;;;;;;;;;;;;;;;;4858631;29;19960;-84
2023/03/03 20:04:41;;;;;;;;;;;;;;;;;;4844661;29;19940;-84
2023/03/03 20:07:15;;;;;;;;;;;;;;;;;;4844373;29;19920;-83
2023/03/03 20:09:59;;;;;;;;;;;;;;;;;;4844226;29;19943;-83
2023/03/03 20:12:31;;;;;;;;;;;;;;;;;;4858395;29;20444;-84
2023/03/03 20:14:57;;;;;;;;;;;;;;;;;;4844390;29;19924;-85
2023/03/03 20:17:29;;;;;;;;;;;;;;;;;;4858835;29;19921;-84
2023/03/03 20:19:54;;;;;;;;;;;;;;;;;;4844234;29;19921;-84
2023/03/03 20:22:38;;;;;;;;;;;;;;;;;;4844312;29;19943;-84
2023/03/03 20:25:22;;;;;;;;;;;;;;;;;;4862196;29;20023;-84
2023/03/03 20:27:56;;;;;;;;;;;;;;;;;;4845792;29;19924;-84
2023/03/03 20:30:44;;;;;;;;;;;;;;;;;;4861789;29;19924;-84
2023/03/03 20:33:19;;;;;;;;;;;;;;;;;;4862220;29;19950;-85
2023/03/03 20:35:50;;;;;;;;;;;;;;;;;;4862331;29;19920;-84
2023/03/03 20:38:21;;;;;;;;;;;;;;;;;;4862516;29;20099;-84
2023/03/03 20:40:54;;;;;;;;;;;;;;;;;;4862242;29;19920;-84
2023/03/03 20:43:35;;;;;;;;;;;;;;;;;;4845686;29;19926;-84
2023/03/03 20:46:06;;;;;;;;;;;;;;;;;;4845796;29;19921;-84
2023/03/03 20:48:31;;;;;;;;;;;;;;;;;;4860908;29;19927;-84
2023/03/03 20:51:03;;;;;;;;;;;;;;;;;;4862125;29;19920;-84
2023/03/03 20:53:28;;;;;;;;;;;;;;;;;;4860351;29;19928;-84
2023/03/03 20:56:04;;;;;;;;;;;;;;;;;;4860805;29;19920;-85
2023/03/03 20:58:39;;;;;;;;;;;;;;;;;;4845465;29;20311;-85
2023/03/03 21:01:11;;;;;;;;;;;;;;;;;;4862004;29;19921;-85
2023/03/03 21:03:38;;;;;;;;;;;;;;;;;;4845333;29;19928;-85
2023/03/03 21:06:08;;;;;;;;;;;;;;;;;;4845427;29;19967;-85
2023/03/03 21:08:47;;;;;;;;;;;;;;;;;;4845372;29;19920;-85
2023/03/03 21:11:13;;;;;;;;;;;;;;;;;;4862051;29;19984;-85
2023/03/03 21:13:41;;;;;;;;;;;;;;;;;;4860972;29;21390;-84
2023/03/03 21:16:09;;;;;;;;;;;;;;;;;;4862017;29;19976;-85
2023/03/03 21:18:35;;;;;;;;;;;;;;;;;;4860765;29;20275;-85
2023/03/03 21:21:00;;;;;;;;;;;;;;;;;;4861789;29;20003;-85
2023/03/03 21:23:26;;;;;;;;;;;;;;;;;;4844293;29;20273;-84
2023/03/03 21:25:52;;;;;;;;;;;;;;;;;;4861533;29;19924;-85
2023/03/03 21:28:23;;;;;;;;;;;;;;;;;;4861685;29;19945;-85
2023/03/03 21:31:09;;;;;;;;;;;;;;;;;;4860350;29;19927;-85
2023/03/03 21:33:38;;;;;;;;;;;;;;;;;;4861698;29;19977;-85
2023/03/03 21:36:05;;;;;;;;;;;;;;;;;;4844948;29;19923;-84
2023/03/03 21:38:35;;;;;;;;;;;;;;;;;;4844968;29;19920;-84
2023/03/03 21:41:00;;;;;;;;;;;;;;;;;;4844811;29;20283;-85
2023/03/03 21:43:33;;;;;;;;;;;;;;;;;;4860376;29;19931;-85
2023/03/03 21:45:59;;;;;;;;;;;;;;;;;;4861774;29;19916;-85
2023/03/03 21:48:24;;;;;;;;;;;;;;;;;;4861526;29;19928;-85
2023/03/03 21:50:49;;;;;;;;;;;;;;;;;;4861385;29;20366;-84
2023/03/03 21:53:15;;;;;;;;;;;;;;;;;;4860125;29;19924;-84
2023/03/03 21:55:47;;;;;;;;;;;;;;;;;;4860367;29;19927;-84
2023/03/03 21:58:12;;;;;;;;;;;;;;;;;;4860415;29;20283;-83
2023/03/03 22:00:38;;;;;;;;;;;;;;;;;;4861250;29;19945;-84
2023/03/03 22:03:04;;;;;;;;;;;;;;;;;;4861488;29;19920;-84
2023/03/03 22:05:29;;;;;;;;;;;;;;;;;;4848144;29;20018;-84
2023/03/03 22:07:54;;;;;;;;;;;;;;;;;;4864937;29;19927;-84
2023/03/03 22:10:20;;;;;;;;;;;;;;;;;;4848273;29;19920;-85
2023/03/03 22:12:45;;;;;;;;;;;;;;;;;;4863679;29;19932;-84
2023/03/03 22:15:10;;;;;;;;;;;;;;;;;;4863814;29;19927;-85
2023/03/03 22:17:35;;;;;;;;;;;;;;;;;;4864577;29;19924;-85
2023/03/03 22:20:01;;;;;;;;;;;;;;;;;;4863602;29;19976;-84
2023/03/03 22:22:26;;;;;;;;;;;;;;;;;;4864904;29;20375;-84
2023/03/03 22:24:52;;;;;;;;;;;;;;;;;;4863418;29;20285;-85
2023/03/03 22:27:18;;;;;;;;;;;;;;;;;;4848067;29;19965;-84
2023/03/03 22:29:43;;;;;;;;;;;;;;;;;;4847917;29;19960;-85
2023/03/03 22:32:08;;;;;;;;;;;;;;;;;;4864519;29;19920;-85
2023/03/03 22:34:34;;;;;;;;;;;;;;;;;;4863436;29;19989;-85
2023/03/03 22:36:59;;;;;;;;;;;;;;;;;;4863116;29;19920;-85
2023/03/03 22:39:24;;;;;;;;;;;;;;;;;;4863171;29;19920;-84
2023/03/03 22:41:49;;;;;;;;;;;;;;;;;;4847715;29;19920;-84
2023/03/03 22:44:15;;;;;;;;;;;;;;;;;;4847623;29;19920;-84
2023/03/03 22:46:40;;;;;;;;;;;;;;;;;;4863193;29;19920;-85
2023/03/03 22:49:05;;;;;;;;;;;;;;;;;;4847493;29;20023;-84
2023/03/03 22:51:31;;;;;;;;;;;;;;;;;;4864174;29;20380;-84
2023/03/03 22:53:56;;;;;;;;;;;;;;;;;;4864159;29;19921;-84
2023/03/03 22:56:21;;;;;;;;;;;;;;;;;;4864165;29;19921;-84
2023/03/03 22:58:47;;;;;;;;;;;;;;;;;;4847629;29;19920;-84
2023/03/03 23:01:12;;;;;;;;;;;;;;;;;;4864116;29;20010;-84
2023/03/03 23:03:38;;;;;;;;;;;;;;;;;;4863951;29;19995;-85
2023/03/03 23:06:03;;;;;;;;;;;;;;;;;;4864080;29;19927;-84
2023/03/03 23:08:28;;;;;;;;;;;;;;;;;;4862730;29;19920;-85
2023/03/03 23:10:54;;;;;;;;;;;;;;;;;;4862553;29;19920;-85
2023/03/03 23:13:19;;;;;;;;;;;;;;;;;;4863901;29;20367;-84
2023/03/03 23:15:44;;;;;;;;;;;;;;;;;;4863159;29;20439;-85
2023/03/03 23:18:10;;;;;;;;;;;;;;;;;;4863652;29;20406;-83
